Time;durP1;ratioP1;P1;durP2;ratioP2;P2;SDS_P1;SDS_P2;PMS_P1;PMS_P2;Temp;Humidity;BMP_temperature;BMP_pressure;BME280_temperature;BME280_humidity;BME280_pressure;Samples;Min_cycle;Max_cycle;Signal;HPM_P1;HPM_P2
2023/04/20 00:01:09;;;;;;;15.27;7.28;;;;;;;;;;4997642;28;20038;-80
2023/04/20 00:03:36;;;;;;;11.68;6.75;;;;;;;;;;4993751;28;20562;-80
2023/04/20 00:06:02;;;;;;;11.80;6.80;;;;;;;;;;4996021;28;20756;-80
2023/04/20 00:08:27;;;;;;;13.55;7.18;;;;;;;;;;4994017;28;20032;-80
2023/04/20 00:10:53;;;;;;;13.05;6.60;;;;;;;;;;5002185;28;20029;-81
2023/04/20 00:13:18;;;;;;;13.40;7.13;;;;;;;;;;4993378;28;20038;-81
2023/04/20 00:15:44;;;;;;;12.32;6.78;;;;;;;;;;4979355;28;20049;-81
2023/04/20 00:18:09;;;;;;;11.65;6.75;;;;;;;;;;4992506;28;20057;-81
2023/04/20 00:20:35;;;;;;;11.27;6.38;;;;;;;;;;5008750;28;20045;-81
2023/04/20 00:23:01;;;;;;;11.82;6.22;;;;;;;;;;4975803;28;20670;-81
2023/04/20 00:25:26;;;;;;;11.90;6.90;;;;;;;;;;4985433;28;20132;-80
2023/04/20 00:28:12;;;;;;;12.95;6.53;;;;;;;;;;4994498;28;20474;-81
2023/04/20 00:30:37;;;;;;;12.50;6.13;;;;;;;;;;4917665;28;20039;-80
2023/04/20 00:33:03;;;;;;;11.85;6.40;;;;;;;;;;4921291;28;20075;-80
2023/04/20 00:35:28;;;;;;;11.50;6.28;;;;;;;;;;4926037;28;20631;-80
2023/04/20 00:37:54;;;;;;;11.68;6.68;;;;;;;;;;4922103;29;20498;-80
2023/04/20 00:40:19;;;;;;;10.80;6.35;;;;;;;;;;4937825;28;20135;-80
2023/04/20 00:42:44;;;;;;;10.20;6.13;;;;;;;;;;4936909;28;20067;-80
2023/04/20 00:45:10;;;;;;;10.82;6.18;;;;;;;;;;4920162;28;20893;-79
2023/04/20 00:47:35;;;;;;;10.32;5.90;;;;;;;;;;4937024;28;20039;-81
2023/04/20 00:50:01;;;;;;;31.83;15.05;;;;;;;;;;4938494;28;20043;-82
2023/04/20 00:52:26;;;;;;;18.85;9.90;;;;;;;;;;4937447;28;20565;-81
2023/04/20 00:54:52;;;;;;;10.98;6.15;;;;;;;;;;4912788;29;20035;-81
2023/04/20 00:57:22;;;;;;;11.60;5.78;;;;;;;;;;4935987;28;20099;-81
2023/04/20 00:59:49;;;;;;;9.93;6.13;;;;;;;;;;4936323;28;20035;-81
2023/04/20 01:02:15;;;;;;;10.70;6.18;;;;;;;;;;4938075;28;21052;-81
2023/04/20 01:04:40;;;;;;;9.48;5.85;;;;;;;;;;4935856;28;20048;-81
2023/04/20 01:07:06;;;;;;;10.35;6.18;;;;;;;;;;4951995;28;20044;-81
2023/04/20 01:09:31;;;;;;;9.75;5.57;;;;;;;;;;4998440;28;20042;-81
2023/04/20 01:11:57;;;;;;;11.65;5.75;;;;;;;;;;4994399;28;20080;-81
2023/04/20 01:14:22;;;;;;;13.77;6.18;;;;;;;;;;4989431;28;20041;-81
2023/04/20 01:16:48;;;;;;;10.70;6.15;;;;;;;;;;5000647;28;20038;-81
2023/04/20 01:19:14;;;;;;;8.50;5.03;;;;;;;;;;5000233;28;20076;-82
2023/04/20 01:21:39;;;;;;;11.07;6.03;;;;;;;;;;5003513;28;20556;-80
2023/04/20 01:24:05;;;;;;;10.07;6.07;;;;;;;;;;4980755;28;20050;-81
2023/04/20 01:26:31;;;;;;;10.65;5.82;;;;;;;;;;4982165;28;20030;-80
2023/04/20 01:28:57;;;;;;;10.27;5.47;;;;;;;;;;4982057;28;20033;-80
2023/04/20 01:31:23;;;;;;;9.45;5.35;;;;;;;;;;4987358;28;20387;-80
2023/04/20 01:33:48;;;;;;;11.05;5.43;;;;;;;;;;4982656;28;20049;-81
2023/04/20 01:36:14;;;;;;;12.57;6.63;;;;;;;;;;4990288;28;20341;-80
2023/04/20 01:38:40;;;;;;;10.50;4.93;;;;;;;;;;4995943;28;20038;-80
2023/04/20 01:41:07;;;;;;;10.38;5.72;;;;;;;;;;4992616;28;20236;-79
2023/04/20 01:43:34;;;;;;;11.13;6.43;;;;;;;;;;4978971;28;20564;-79
2023/04/20 01:46:00;;;;;;;11.02;5.88;;;;;;;;;;5003662;28;20464;-80
2023/04/20 01:48:25;;;;;;;9.95;5.82;;;;;;;;;;5005101;28;20034;-80
2023/04/20 01:50:51;;;;;;;9.88;5.90;;;;;;;;;;4988006;28;20374;-80
2023/04/20 01:53:17;;;;;;;11.07;5.18;;;;;;;;;;4994877;28;20038;-80
2023/04/20 01:55:42;;;;;;;8.95;5.22;;;;;;;;;;4982032;28;20674;-80
2023/04/20 01:58:08;;;;;;;9.43;5.68;;;;;;;;;;5013705;28;20033;-80
2023/04/20 02:00:33;;;;;;;9.45;5.63;;;;;;;;;;5011696;28;20035;-80
2023/04/20 02:02:58;;;;;;;11.10;5.50;;;;;;;;;;5014030;28;20044;-81
2023/04/20 02:05:24;;;;;;;10.55;5.93;;;;;;;;;;4995942;28;21020;-81
2023/04/20 02:07:50;;;;;;;10.98;6.00;;;;;;;;;;4999141;28;20489;-81
2023/04/20 02:10:15;;;;;;;10.90;6.03;;;;;;;;;;4978292;28;20037;-81
2023/04/20 02:12:41;;;;;;;9.30;5.57;;;;;;;;;;4993537;28;20077;-81
2023/04/20 02:15:08;;;;;;;10.70;5.88;;;;;;;;;;5012600;28;20057;-81
2023/04/20 02:17:35;;;;;;;11.10;6.05;;;;;;;;;;4994972;28;20620;-81
2023/04/20 02:20:00;;;;;;;11.82;6.15;;;;;;;;;;4993087;28;20481;-81
2023/04/20 02:22:26;;;;;;;9.35;5.47;;;;;;;;;;4977426;28;20033;-81
2023/04/20 02:24:51;;;;;;;11.82;6.45;;;;;;;;;;4993649;28;20052;-81
2023/04/20 02:27:16;;;;;;;12.38;6.75;;;;;;;;;;5002598;28;20120;-81
2023/04/20 02:29:42;;;;;;;12.32;7.13;;;;;;;;;;4996853;28;20432;-81
2023/04/20 02:32:07;;;;;;;11.88;6.38;;;;;;;;;;5010343;28;20056;-81
2023/04/20 02:34:33;;;;;;;13.05;6.35;;;;;;;;;;4994035;28;20025;-80
2023/04/20 02:36:58;;;;;;;10.73;6.38;;;;;;;;;;4986465;28;20041;-78
2023/04/20 02:39:23;;;;;;;11.88;6.70;;;;;;;;;;5011429;28;20042;-78
2023/04/20 02:41:49;;;;;;;13.25;7.40;;;;;;;;;;4992076;28;20163;-78
2023/04/20 02:44:14;;;;;;;13.43;7.25;;;;;;;;;;4987908;28;20539;-78
2023/04/20 02:46:40;;;;;;;13.13;7.18;;;;;;;;;;5011407;28;20380;-78
2023/04/20 02:49:06;;;;;;;12.05;6.72;;;;;;;;;;4977449;28;20049;-78
2023/04/20 02:51:31;;;;;;;12.88;6.85;;;;;;;;;;4977644;28;20045;-78
2023/04/20 02:53:57;;;;;;;11.02;6.65;;;;;;;;;;4994673;28;20042;-78
2023/04/20 02:56:22;;;;;;;13.25;7.47;;;;;;;;;;4995006;28;20038;-78
2023/04/20 02:58:50;;;;;;;12.23;7.70;;;;;;;;;;4982609;28;20033;-79
2023/04/20 03:01:16;;;;;;;12.05;6.90;;;;;;;;;;4995100;28;20061;-78
2023/04/20 03:03:41;;;;;;;14.20;7.60;;;;;;;;;;4994333;28;20485;-78
2023/04/20 03:06:07;;;;;;;16.27;8.30;;;;;;;;;;4982314;28;20367;-78
2023/04/20 03:08:32;;;;;;;13.35;7.93;;;;;;;;;;4982630;28;20108;-78
2023/04/20 03:10:57;;;;;;;13.68;8.18;;;;;;;;;;4994018;28;20098;-77
2023/04/20 03:13:23;;;;;;;14.35;7.65;;;;;;;;;;4998957;28;20036;-78
2023/04/20 03:15:48;;;;;;;15.63;7.95;;;;;;;;;;4996305;28;20543;-78
2023/04/20 03:18:14;;;;;;;14.77;7.85;;;;;;;;;;4994341;28;20033;-79
2023/04/20 03:20:39;;;;;;;13.77;7.97;;;;;;;;;;5012232;28;20064;-79
2023/04/20 03:23:05;;;;;;;14.20;8.25;;;;;;;;;;5000030;28;20866;-80
2023/04/20 03:25:31;;;;;;;13.88;7.40;;;;;;;;;;5010590;28;20807;-79
2023/04/20 03:27:56;;;;;;;16.42;8.63;;;;;;;;;;5002109;28;20049;-78
2023/04/20 03:30:22;;;;;;;15.02;8.15;;;;;;;;;;4992783;28;20099;-78
2023/04/20 03:32:47;;;;;;;14.27;7.53;;;;;;;;;;4986457;28;20053;-78
2023/04/20 03:35:12;;;;;;;15.90;8.45;;;;;;;;;;4992846;28;20045;-77
2023/04/20 03:37:38;;;;;;;14.75;8.10;;;;;;;;;;4979497;28;20045;-78
2023/04/20 03:40:05;;;;;;;16.00;8.77;;;;;;;;;;4993982;28;20044;-78
2023/04/20 03:42:31;;;;;;;;;;;;;;;;;;4976389;28;20109;-78
2023/04/20 03:44:56;;;;;;;16.33;7.43;;;;;;;;;;4995811;28;20344;-78
2023/04/20 03:47:21;;;;;;;14.55;8.15;;;;;;;;;;4980800;28;20029;-78
2023/04/20 03:49:47;;;;;;;14.10;7.95;;;;;;;;;;4985246;28;20064;-79
2023/04/20 03:52:13;;;;;;;13.70;7.75;;;;;;;;;;4994307;28;20052;-79
2023/04/20 03:54:38;;;;;;;15.35;8.40;;;;;;;;;;5012170;28;20113;-83
2023/04/20 03:57:03;;;;;;;15.35;8.57;;;;;;;;;;4994665;28;20029;-83
2023/04/20 03:59:29;;;;;;;14.75;8.38;;;;;;;;;;4993106;28;20042;-78
2023/04/20 04:01:55;;;;;;;15.63;8.73;;;;;;;;;;4995243;28;20037;-78
2023/04/20 04:04:21;;;;;;;13.63;7.72;;;;;;;;;;5001123;28;20725;-80
2023/04/20 04:06:46;;;;;;;14.20;8.07;;;;;;;;;;5009370;28;20037;-79
2023/04/20 04:09:11;;;;;;;16.65;8.50;;;;;;;;;;4995943;28;20523;-79
2023/04/20 04:11:37;;;;;;;16.42;8.30;;;;;;;;;;4998450;28;20046;-80
2023/04/20 04:14:04;;;;;;;17.55;8.98;;;;;;;;;;4989841;28;20044;-80
2023/04/20 04:16:30;;;;;;;15.27;8.77;;;;;;;;;;4997638;28;20485;-80
2023/04/20 04:18:57;;;;;;;14.98;8.98;;;;;;;;;;4997001;28;20494;-80
2023/04/20 04:21:22;;;;;;;14.30;8.30;;;;;;;;;;5000965;28;20128;-80
2023/04/20 04:23:48;;;;;;;16.67;8.75;;;;;;;;;;5014261;28;20126;-80
2023/04/20 04:26:14;;;;;;;14.88;8.48;;;;;;;;;;5004789;28;20033;-80
2023/04/20 04:28:39;;;;;;;14.68;8.95;;;;;;;;;;4983742;28;20123;-79
2023/04/20 04:31:06;;;;;;;16.67;8.98;;;;;;;;;;4980055;28;20124;-80
2023/04/20 04:33:35;;;;;;;15.43;8.68;;;;;;;;;;5014047;28;20038;-80
2023/04/20 04:36:01;;;;;;;18.25;9.00;;;;;;;;;;4978923;28;20705;-79
2023/04/20 04:38:26;;;;;;;15.90;7.90;;;;;;;;;;4979913;28;20066;-80
2023/04/20 04:40:52;;;;;;;15.40;8.30;;;;;;;;;;5015501;28;20179;-81
2023/04/20 04:43:18;;;;;;;15.35;8.85;;;;;;;;;;5014421;28;20033;-81
2023/04/20 04:45:46;;;;;;;15.05;8.65;;;;;;;;;;5010761;28;20041;-80
2023/04/20 04:48:12;;;;;;;16.77;8.57;;;;;;;;;;5012289;28;20080;-81
2023/04/20 04:50:38;;;;;;;16.17;8.82;;;;;;;;;;4982411;28;20055;-81
2023/04/20 04:53:03;;;;;;;15.45;8.95;;;;;;;;;;4995354;28;20556;-80
2023/04/20 04:55:28;;;;;;;18.63;9.32;;;;;;;;;;4995259;28;20057;-80
2023/04/20 04:57:54;;;;;;;15.20;9.38;;;;;;;;;;4995921;28;20030;-80
2023/04/20 05:00:20;;;;;;;17.50;9.90;;;;;;;;;;4996661;28;20029;-80
2023/04/20 05:02:45;;;;;;;16.67;9.60;;;;;;;;;;5012790;28;20553;-80
2023/04/20 05:05:10;;;;;;;18.00;9.07;;;;;;;;;;4996873;28;20117;-80
2023/04/20 05:07:37;;;;;;;18.05;9.45;;;;;;;;;;5012982;28;20516;-79
2023/04/20 05:10:03;;;;;;;17.90;9.27;;;;;;;;;;5012685;28;20038;-80
2023/04/20 05:12:29;;;;;;;16.45;9.32;;;;;;;;;;4995042;28;20037;-80
2023/04/20 05:14:54;;;;;;;16.10;9.02;;;;;;;;;;4989006;28;20367;-79
2023/04/20 05:17:20;;;;;;;16.33;8.95;;;;;;;;;;5014004;28;20030;-81
2023/04/20 05:19:45;;;;;;;14.88;9.13;;;;;;;;;;5000013;28;20403;-80
2023/04/20 05:22:11;;;;;;;15.55;8.68;;;;;;;;;;4994821;28;20041;-80
2023/04/20 05:24:36;;;;;;;17.42;8.98;;;;;;;;;;5011905;28;20043;-80
2023/04/20 05:27:03;;;;;;;15.77;8.85;;;;;;;;;;5005099;28;20036;-80
2023/04/20 05:29:28;;;;;;;21.38;10.25;;;;;;;;;;4996414;28;20612;-80
2023/04/20 05:31:54;;;;;;;15.45;9.20;;;;;;;;;;4994650;28;20040;-81
2023/04/20 05:34:19;;;;;;;17.55;9.70;;;;;;;;;;5012648;28;20113;-80
2023/04/20 05:36:45;;;;;;;21.17;10.10;;;;;;;;;;4994522;28;20041;-80
2023/04/20 05:39:11;;;;;;;16.27;9.38;;;;;;;;;;5011328;28;20096;-80
2023/04/20 05:41:37;;;;;;;16.80;8.80;;;;;;;;;;5011762;28;20045;-80
2023/04/20 05:44:02;;;;;;;19.17;9.75;;;;;;;;;;4985518;28;20040;-80
2023/04/20 05:46:28;;;;;;;20.85;9.80;;;;;;;;;;5011901;28;20088;-80
2023/04/20 05:48:53;;;;;;;19.48;10.15;;;;;;;;;;5004549;28;20129;-80
2023/04/20 05:51:20;;;;;;;21.92;10.35;;;;;;;;;;4998051;28;20041;-81
2023/04/20 05:53:46;;;;;;;17.70;9.68;;;;;;;;;;4981777;28;20042;-81
2023/04/20 05:56:12;;;;;;;18.65;10.20;;;;;;;;;;4986486;28;20041;-81
2023/04/20 05:58:38;;;;;;;18.80;10.10;;;;;;;;;;4998850;28;20053;-80
2023/04/20 06:01:03;;;;;;;18.35;10.25;;;;;;;;;;4997514;28;20366;-80
2023/04/20 06:03:29;;;;;;;18.95;10.75;;;;;;;;;;5010418;28;20037;-81
2023/04/20 06:05:55;;;;;;;19.40;10.15;;;;;;;;;;4994127;28;20108;-81
2023/04/20 06:08:20;;;;;;;18.48;10.40;;;;;;;;;;4996086;28;20421;-80
2023/04/20 06:10:45;;;;;;;18.35;10.07;;;;;;;;;;4992263;28;20057;-80
2023/04/20 06:13:11;;;;;;;20.48;10.48;;;;;;;;;;4981550;28;20352;-81
2023/04/20 06:15:36;;;;;;;19.17;10.35;;;;;;;;;;4981275;28;20089;-81
2023/04/20 06:18:02;;;;;;;19.98;11.35;;;;;;;;;;4992976;28;20035;-81
2023/04/20 06:20:27;;;;;;;19.05;10.57;;;;;;;;;;4993841;28;20033;-80
2023/04/20 06:22:53;;;;;;;17.35;10.15;;;;;;;;;;5012754;28;20037;-81
2023/04/20 06:25:18;;;;;;;18.98;9.85;;;;;;;;;;5011122;28;20124;-81
2023/04/20 06:27:44;;;;;;;18.77;9.68;;;;;;;;;;4987181;28;20037;-81
2023/04/20 06:30:10;;;;;;;18.98;10.02;;;;;;;;;;4978224;28;20049;-82
2023/04/20 06:32:36;;;;;;;18.33;10.15;;;;;;;;;;5011199;28;20040;-81
2023/04/20 06:35:03;;;;;;;19.73;10.35;;;;;;;;;;4992993;28;20734;-79
2023/04/20 06:37:28;;;;;;;18.40;10.40;;;;;;;;;;5012458;28;20117;-80
2023/04/20 06:39:53;;;;;;;17.25;9.90;;;;;;;;;;5000720;28;20117;-80
2023/04/20 06:42:19;;;;;;;18.38;10.23;;;;;;;;;;5011935;28;20041;-80
2023/04/20 06:44:45;;;;;;;22.13;10.20;;;;;;;;;;4991319;28;20468;-80
2023/04/20 06:47:10;;;;;;;17.33;9.57;;;;;;;;;;4994632;28;20379;-80
2023/04/20 06:49:38;;;;;;;16.52;9.68;;;;;;;;;;5010618;28;20080;-80
2023/04/20 06:52:03;;;;;;;19.15;9.93;;;;;;;;;;4994228;28;20120;-80
2023/04/20 06:54:29;;;;;;;24.92;12.10;;;;;;;;;;5010901;28;20531;-80
2023/04/20 06:56:54;;;;;;;19.80;9.98;;;;;;;;;;4993291;28;20033;-81
2023/04/20 06:59:19;;;;;;;16.20;9.25;;;;;;;;;;5009741;28;20081;-80
2023/04/20 07:01:45;;;;;;;17.58;9.88;;;;;;;;;;5010770;28;20046;-80
2023/04/20 07:04:11;;;;;;;18.98;9.23;;;;;;;;;;5011068;28;20065;-80
2023/04/20 07:06:37;;;;;;;14.85;8.52;;;;;;;;;;5010852;28;20025;-80
2023/04/20 07:09:03;;;;;;;16.58;8.35;;;;;;;;;;5011730;28;20390;-80
2023/04/20 07:11:29;;;;;;;17.83;9.95;;;;;;;;;;4993687;28;20554;-80
2023/04/20 07:13:54;;;;;;;16.13;9.18;;;;;;;;;;4997365;28;20033;-80
2023/04/20 07:16:19;;;;;;;19.70;9.13;;;;;;;;;;5009386;28;20883;-80
2023/04/20 07:18:45;;;;;;;16.67;8.43;;;;;;;;;;5011935;28;20045;-80
2023/04/20 07:21:10;;;;;;;16.98;9.23;;;;;;;;;;4976854;28;20041;-79
2023/04/20 07:23:36;;;;;;;17.33;9.70;;;;;;;;;;5010426;28;20144;-80
2023/04/20 07:26:01;;;;;;;16.20;9.02;;;;;;;;;;4992813;28;20117;-80
2023/04/20 07:28:26;;;;;;;16.05;8.93;;;;;;;;;;4995639;28;20041;-80
2023/04/20 07:30:52;;;;;;;15.18;8.35;;;;;;;;;;4979309;28;20109;-79
2023/04/20 07:33:17;;;;;;;16.65;8.63;;;;;;;;;;4994718;28;20060;-79
2023/04/20 07:35:42;;;;;;;14.85;8.63;;;;;;;;;;4983966;28;20543;-81
2023/04/20 07:38:09;;;;;;;17.13;9.80;;;;;;;;;;5010780;28;20041;-80
2023/04/20 07:40:35;;;;;;;19.33;9.90;;;;;;;;;;4978994;28;20033;-80
2023/04/20 07:43:00;;;;;;;16.70;8.57;;;;;;;;;;5001154;28;20041;-80
2023/04/20 07:45:26;;;;;;;14.75;8.15;;;;;;;;;;4991764;28;20051;-80
2023/04/20 07:47:53;;;;;;;17.00;8.82;;;;;;;;;;5009785;28;20045;-79
2023/04/20 07:50:21;;;;;;;15.65;9.10;;;;;;;;;;4982583;28;20042;-80
2023/04/20 07:52:47;;;;;;;15.80;8.77;;;;;;;;;;4972267;28;20060;-80
2023/04/20 07:55:13;;;;;;;15.38;8.50;;;;;;;;;;4995509;28;20948;-80
2023/04/20 07:57:38;;;;;;;14.77;8.35;;;;;;;;;;4994470;28;20481;-80
2023/04/20 08:00:06;;;;;;;14.95;8.40;;;;;;;;;;5011506;28;20034;-80
2023/04/20 08:02:31;;;;;;;16.40;9.30;;;;;;;;;;5011824;28;20041;-80
2023/04/20 08:04:57;;;;;;;14.45;7.97;;;;;;;;;;5010180;28;20512;-82
2023/04/20 08:07:22;;;;;;;15.70;8.85;;;;;;;;;;5011040;28;20038;-81
2023/04/20 08:09:48;;;;;;;14.52;8.38;;;;;;;;;;4997486;28;20104;-81
2023/04/20 08:12:14;;;;;;;16.42;8.77;;;;;;;;;;5010428;28;20046;-80
2023/04/20 08:14:40;;;;;;;15.00;8.57;;;;;;;;;;4992840;28;20374;-79
2023/04/20 08:17:06;;;;;;;15.68;8.77;;;;;;;;;;5010505;28;20036;-80
2023/04/20 08:19:31;;;;;;;14.00;7.68;;;;;;;;;;5002019;28;20037;-80
2023/04/20 08:21:57;;;;;;;15.77;7.93;;;;;;;;;;4993677;28;20033;-81
2023/04/20 08:24:22;;;;;;;14.02;7.57;;;;;;;;;;4995620;28;20157;-80
2023/04/20 08:26:48;;;;;;;14.68;8.25;;;;;;;;;;4978357;28;20222;-80
2023/04/20 08:29:14;;;;;;;12.88;7.47;;;;;;;;;;5001941;28;20112;-81
2023/04/20 08:31:39;;;;;;;13.07;7.10;;;;;;;;;;4996354;28;20386;-81
2023/04/20 08:34:05;;;;;;;14.68;7.97;;;;;;;;;;4998112;28;20478;-81
2023/04/20 08:36:30;;;;;;;14.07;7.80;;;;;;;;;;4975334;28;20036;-81
2023/04/20 08:39:20;;;;;;;11.48;6.72;;;;;;;;;;4994398;28;20062;-83
2023/04/20 08:41:46;;;;;;;10.70;6.13;;;;;;;;;;4985018;28;20486;-80
2023/04/20 08:44:12;;;;;;;9.60;5.57;;;;;;;;;;4991793;28;20157;-80
2023/04/20 08:46:40;;;;;;;11.32;6.88;;;;;;;;;;5009784;28;20092;-80
2023/04/20 08:49:05;;;;;;;;;;;;;;;;;;5010500;28;20171;-80
2023/04/20 08:51:31;;;;;;;10.15;6.22;;;;;;;;;;4995596;28;19947;-80
2023/04/20 08:54:04;;;;;;;11.05;6.13;;;;;;;;;;4991629;28;20041;-80
2023/04/20 08:56:37;;;;;;;12.23;6.75;;;;;;;;;;4995112;28;20033;-81
2023/04/20 08:59:04;;;;;;;12.48;7.18;;;;;;;;;;5012899;28;20572;-80
2023/04/20 09:01:30;;;;;;;12.60;6.93;;;;;;;;;;5013173;28;20255;-80
2023/04/20 09:03:55;;;;;;;14.13;7.28;;;;;;;;;;5000552;28;20277;-81
2023/04/20 09:06:21;;;;;;;12.38;7.57;;;;;;;;;;4995767;28;20111;-81
2023/04/20 09:08:47;;;;;;;11.88;7.13;;;;;;;;;;4979774;28;20457;-80
2023/04/20 09:11:23;;;;;;;14.25;8.15;;;;;;;;;;5012779;28;20112;-80
2023/04/20 09:14:03;;;;;;;13.73;7.95;;;;;;;;;;4979490;28;20112;-80
2023/04/20 09:16:30;;;;;;;14.30;8.10;;;;;;;;;;4978891;28;20030;-80
2023/04/20 09:18:56;;;;;;;16.15;9.32;;;;;;;;;;5014658;28;20503;-80
2023/04/20 09:21:23;;;;;;;17.30;8.77;;;;;;;;;;4995790;28;20037;-81
2023/04/20 09:23:55;;;;;;;22.50;12.23;;;;;;;;;;5012570;28;20160;-79
2023/04/20 09:26:21;;;;;;;15.35;9.40;;;;;;;;;;5013496;28;20044;-80
2023/04/20 09:28:47;;;;;;;16.52;9.40;;;;;;;;;;4995474;28;20052;-80
2023/04/20 09:31:20;;;;;;;14.93;9.00;;;;;;;;;;5005008;28;20513;-80
2023/04/20 09:33:55;;;;;;;13.32;8.35;;;;;;;;;;5002714;28;20718;-81
2023/04/20 09:36:20;;;;;;;14.93;8.50;;;;;;;;;;4988109;28;20052;-82
2023/04/20 09:38:45;;;;;;;17.90;9.07;;;;;;;;;;4994884;28;20108;-81
2023/04/20 09:41:11;;;;;;;15.38;9.45;;;;;;;;;;5001807;28;20516;-81
2023/04/20 09:43:37;;;;;;;17.98;9.90;;;;;;;;;;4999006;28;20044;-81
2023/04/20 09:46:03;;;;;;;16.95;9.98;;;;;;;;;;4994380;28;20033;-81
2023/04/20 09:48:28;;;;;;;16.67;9.98;;;;;;;;;;5012720;28;20037;-81
2023/04/20 09:50:54;;;;;;;15.95;9.52;;;;;;;;;;4995056;28;20445;-81
2023/04/20 09:53:19;;;;;;;17.52;9.93;;;;;;;;;;5013855;28;20030;-81
2023/04/20 09:55:47;;;;;;;18.35;9.57;;;;;;;;;;5012530;28;20533;-81
2023/04/20 09:58:13;;;;;;;14.15;8.05;;;;;;;;;;5013220;28;20041;-79
2023/04/20 10:00:38;;;;;;;15.35;8.75;;;;;;;;;;4999772;28;20034;-80
2023/04/20 10:03:05;;;;;;;15.13;8.32;;;;;;;;;;5011908;28;20060;-80
2023/04/20 10:05:38;;;;;;;13.35;7.75;;;;;;;;;;5011125;28;20143;-80
2023/04/20 10:08:04;;;;;;;13.27;7.78;;;;;;;;;;4989410;28;20041;-80
2023/04/20 10:10:30;;;;;;;13.85;8.43;;;;;;;;;;4995440;28;20041;-81
2023/04/20 10:12:59;;;;;;;14.27;7.93;;;;;;;;;;5012860;28;20048;-81
2023/04/20 10:15:38;;;;;;;12.75;7.55;;;;;;;;;;4986229;28;20038;-80
2023/04/20 10:18:19;;;;;;;12.98;7.10;;;;;;;;;;4978328;28;20073;-81
2023/04/20 10:20:45;;;;;;;12.07;7.40;;;;;;;;;;5012477;28;20045;-81
2023/04/20 10:23:10;;;;;;;12.27;7.68;;;;;;;;;;5012206;28;20042;-81
2023/04/20 10:25:36;;;;;;;11.80;7.22;;;;;;;;;;5001981;28;20498;-82
2023/04/20 10:28:05;;;;;;;10.60;6.72;;;;;;;;;;4987877;28;20060;-82
2023/04/20 10:30:32;;;;;;;10.15;6.28;;;;;;;;;;4998065;28;20120;-82
2023/04/20 10:33:10;;;;;;;13.02;6.85;;;;;;;;;;4986672;28;20461;-82
2023/04/20 10:35:49;;;;;;;10.45;6.25;;;;;;;;;;5011988;28;20063;-81
2023/04/20 10:38:27;;;;;;;10.98;6.93;;;;;;;;;;5012406;28;20121;-82
2023/04/20 10:40:52;;;;;;;10.38;6.40;;;;;;;;;;4984681;28;20144;-82
2023/04/20 10:43:20;;;;;;;10.07;6.20;;;;;;;;;;4998929;28;20037;-82
2023/04/20 10:45:45;;;;;;;12.18;6.80;;;;;;;;;;4996232;28;20033;-82
2023/04/20 10:48:11;;;;;;;15.45;9.00;;;;;;;;;;4993998;28;20052;-81
2023/04/20 10:50:36;;;;;;;9.40;6.13;;;;;;;;;;4993058;28;20049;-81
2023/04/20 10:53:06;;;;;;;10.40;6.03;;;;;;;;;;5001804;28;20030;-82
2023/04/20 10:55:31;;;;;;;11.65;6.15;;;;;;;;;;4996629;28;20057;-82
2023/04/20 10:57:56;;;;;;;9.90;6.22;;;;;;;;;;5011685;28;20060;-81
2023/04/20 11:00:27;;;;;;;10.82;5.80;;;;;;;;;;4997753;28;20037;-81
2023/04/20 11:02:57;;;;;;;10.02;6.15;;;;;;;;;;5011420;28;20033;-81
2023/04/20 11:05:25;;;;;;;11.93;7.47;;;;;;;;;;4993937;28;20053;-81
2023/04/20 11:07:52;;;;;;;11.13;6.57;;;;;;;;;;5010812;28;20029;-82
2023/04/20 11:10:18;;;;;;;9.98;6.25;;;;;;;;;;4993870;28;20048;-82
2023/04/20 11:12:44;;;;;;;9.10;5.97;;;;;;;;;;4993077;28;20030;-81
2023/04/20 11:15:09;;;;;;;9.93;5.82;;;;;;;;;;5010828;28;20393;-81
2023/04/20 11:17:36;;;;;;;11.18;6.00;;;;;;;;;;4980685;28;20453;-81
2023/04/20 11:20:07;;;;;;;11.30;7.10;;;;;;;;;;4992823;28;20091;-81
2023/04/20 11:22:33;;;;;;;21.10;11.77;;;;;;;;;;4973689;28;20121;-81
2023/04/20 11:25:06;;;;;;;10.43;6.43;;;;;;;;;;4971686;28;20145;-80
2023/04/20 11:27:32;;;;;;;10.65;5.95;;;;;;;;;;4977283;28;20034;-80
2023/04/20 11:29:58;;;;;;;11.40;6.57;;;;;;;;;;4993717;28;20053;-81
2023/04/20 11:32:25;;;;;;;10.68;6.85;;;;;;;;;;4994903;28;20456;-81
2023/04/20 11:35:01;;;;;;;10.13;6.38;;;;;;;;;;5012358;28;20470;-81
2023/04/20 11:37:27;;;;;;;11.98;6.72;;;;;;;;;;4993176;28;20414;-81
2023/04/20 11:40:19;;;;;;;10.75;6.80;;;;;;;;;;4996331;28;20481;-81
2023/04/20 11:42:45;;;;;;;11.60;6.82;;;;;;;;;;4966003;28;20034;-81
2023/04/20 11:45:10;;;;;;;11.50;6.55;;;;;;;;;;4989746;28;20046;-80
2023/04/20 11:47:37;;;;;;;12.45;7.70;;;;;;;;;;4994105;28;20057;-80
2023/04/20 11:50:03;;;;;;;11.23;6.75;;;;;;;;;;5010904;28;20398;-80
2023/04/20 11:52:29;;;;;;;13.35;7.15;;;;;;;;;;4975290;28;20061;-80
2023/04/20 11:54:54;;;;;;;11.80;6.63;;;;;;;;;;4976657;28;20033;-80
2023/04/20 11:57:22;;;;;;;12.45;6.97;;;;;;;;;;4993271;28;20037;-80
2023/04/20 11:59:48;;;;;;;10.95;6.65;;;;;;;;;;4992407;28;20034;-81
2023/04/20 12:02:14;;;;;;;12.25;7.38;;;;;;;;;;4993962;28;20505;-81
2023/04/20 12:04:40;;;;;;;11.52;7.05;;;;;;;;;;5010276;28;20038;-81
2023/04/20 12:07:06;;;;;;;11.27;6.50;;;;;;;;;;5003275;28;20030;-81
2023/04/20 12:09:36;;;;;;;11.48;6.85;;;;;;;;;;5010260;28;20129;-81
2023/04/20 12:12:02;;;;;;;10.90;7.22;;;;;;;;;;4992265;28;20048;-81
2023/04/20 12:14:27;;;;;;;10.57;6.47;;;;;;;;;;4994595;28;20050;-80
2023/04/20 12:16:53;;;;;;;10.07;6.57;;;;;;;;;;5008414;28;20045;-81
2023/04/20 12:19:19;;;;;;;10.55;6.95;;;;;;;;;;4996927;28;20517;-82
2023/04/20 12:21:46;;;;;;;12.10;7.38;;;;;;;;;;4998268;28;20030;-81
2023/04/20 12:24:12;;;;;;;;;;;;;;;;;;5010392;28;20053;-81
2023/04/20 12:26:37;;;;;;;11.80;7.13;;;;;;;;;;4993393;28;20446;-81
2023/04/20 12:29:02;;;;;;;10.55;7.10;;;;;;;;;;4985923;28;20069;-81
2023/04/20 12:31:28;;;;;;;10.60;6.90;;;;;;;;;;4999966;28;20041;-81
2023/04/20 12:33:53;;;;;;;11.35;6.95;;;;;;;;;;5007227;28;20033;-81
2023/04/20 12:36:19;;;;;;;12.40;7.18;;;;;;;;;;5013749;28;20120;-81
2023/04/20 12:38:45;;;;;;;10.68;6.72;;;;;;;;;;5000063;28;20065;-81
2023/04/20 12:41:14;;;;;;;12.02;7.70;;;;;;;;;;5012350;28;20117;-82
2023/04/20 12:43:39;;;;;;;11.95;6.70;;;;;;;;;;5001363;28;20073;-81
2023/04/20 12:46:05;;;;;;;10.93;6.82;;;;;;;;;;4988418;28;20062;-81
2023/04/20 12:48:30;;;;;;;12.57;7.68;;;;;;;;;;4984884;28;20042;-81
2023/04/20 12:50:55;;;;;;;11.75;7.55;;;;;;;;;;5013815;28;20045;-82
2023/04/20 12:53:21;;;;;;;11.38;7.53;;;;;;;;;;5012410;28;20038;-81
2023/04/20 12:55:46;;;;;;;23.50;13.65;;;;;;;;;;5014628;28;20532;-81
2023/04/20 12:58:12;;;;;;;12.68;7.22;;;;;;;;;;4984480;28;20041;-81
2023/04/20 13:00:37;;;;;;;12.38;7.45;;;;;;;;;;5012761;28;20036;-81
2023/04/20 13:03:03;;;;;;;12.10;7.47;;;;;;;;;;4986994;28;20033;-81
2023/04/20 13:05:28;;;;;;;10.57;7.38;;;;;;;;;;4994637;28;20095;-81
2023/04/20 13:07:54;;;;;;;11.40;7.15;;;;;;;;;;4984242;28;20138;-81
2023/04/20 13:10:19;;;;;;;10.93;7.03;;;;;;;;;;4987906;28;20517;-81
2023/04/20 13:12:44;;;;;;;11.15;7.25;;;;;;;;;;4999135;28;20041;-81
2023/04/20 13:15:11;;;;;;;10.02;6.28;;;;;;;;;;4998233;28;20046;-81
2023/04/20 13:17:37;;;;;;;10.23;6.88;;;;;;;;;;5012817;28;20512;-81
2023/04/20 13:20:03;;;;;;;10.65;7.18;;;;;;;;;;4986292;28;20038;-81
2023/04/20 13:22:29;;;;;;;11.35;7.00;;;;;;;;;;5005208;28;20029;-82
2023/04/20 13:24:54;;;;;;;10.57;6.80;;;;;;;;;;4995097;28;20045;-81
2023/04/20 13:27:20;;;;;;;12.38;6.85;;;;;;;;;;5013364;28;20590;-81
2023/04/20 13:29:45;;;;;;;11.27;6.93;;;;;;;;;;5013000;28;20044;-81
2023/04/20 13:32:10;;;;;;;10.68;7.03;;;;;;;;;;4998569;28;20034;-81
2023/04/20 13:34:36;;;;;;;11.93;7.65;;;;;;;;;;4998429;28;20914;-81
2023/04/20 13:37:02;;;;;;;10.57;6.88;;;;;;;;;;4997804;28;20038;-80
2023/04/20 13:39:28;;;;;;;11.55;7.07;;;;;;;;;;4995658;28;20099;-81
2023/04/20 13:41:53;;;;;;;11.45;7.03;;;;;;;;;;5012373;28;20038;-81
2023/04/20 13:44:19;;;;;;;11.57;7.10;;;;;;;;;;4989047;28;20044;-81
2023/04/20 13:46:45;;;;;;;9.85;6.70;;;;;;;;;;5011601;28;20386;-81
2023/04/20 13:49:11;;;;;;;11.13;6.90;;;;;;;;;;4997240;28;20109;-81
2023/04/20 13:51:39;;;;;;;11.07;6.07;;;;;;;;;;4992199;28;20443;-81
2023/04/20 13:54:05;;;;;;;9.73;6.20;;;;;;;;;;4996596;28;20477;-81
2023/04/20 13:56:32;;;;;;;8.43;5.43;;;;;;;;;;5000443;28;20104;-81
2023/04/20 13:58:57;;;;;;;9.27;6.23;;;;;;;;;;4998439;28;20044;-81
2023/04/20 14:01:24;;;;;;;9.55;6.43;;;;;;;;;;4996195;28;20779;-81
2023/04/20 14:03:51;;;;;;;10.30;5.82;;;;;;;;;;5004540;28;20033;-81
2023/04/20 14:06:16;;;;;;;9.83;5.90;;;;;;;;;;4987553;28;20050;-80
2023/04/20 14:08:42;;;;;;;11.38;6.57;;;;;;;;;;5011823;28;20861;-81
2023/04/20 14:11:07;;;;;;;11.23;6.72;;;;;;;;;;5012237;28;20826;-81
2023/04/20 14:13:33;;;;;;;8.68;6.00;;;;;;;;;;4988121;28;20038;-81
2023/04/20 14:15:58;;;;;;;8.73;5.32;;;;;;;;;;5012093;28;20061;-80
2023/04/20 14:18:23;;;;;;;9.80;5.88;;;;;;;;;;4999099;28;20088;-80
2023/04/20 14:20:51;;;;;;;11.60;6.03;;;;;;;;;;5010323;28;20040;-81
2023/04/20 14:23:19;;;;;;;10.40;5.72;;;;;;;;;;4995330;28;20049;-81
2023/04/20 14:25:45;;;;;;;8.57;5.40;;;;;;;;;;5011234;28;20038;-81